createdAt,value
2022-10-03T00:02:15.753Z,0.60
2022-10-03T00:05:06.088Z,0.70
2022-10-03T00:07:55.236Z,0.50
2022-10-03T00:10:54.777Z,0.40
2022-10-03T00:13:37.781Z,0.70
2022-10-03T00:16:11.924Z,0.50
2022-10-03T00:18:48.800Z,0.40
2022-10-03T00:21:25.805Z,0.47
2022-10-03T00:24:41.695Z,0.67
2022-10-03T00:27:28.346Z,0.90
2022-10-03T00:30:22.922Z,0.77
2022-10-03T00:33:22.872Z,0.70
2022-10-03T00:36:11.754Z,1.03
2022-10-03T00:39:15.078Z,1.13
2022-10-03T00:42:04.947Z,0.70
2022-10-03T00:44:45.233Z,0.90
2022-10-03T00:47:25.445Z,0.70
2022-10-03T00:50:40.398Z,1.47
2022-10-03T00:53:44.339Z,0.80
2022-10-03T00:56:44.462Z,1.10
2022-10-03T00:59:33.834Z,1.47
2022-10-03T01:02:17.627Z,0.87
2022-10-03T01:04:58.169Z,0.77
2022-10-03T01:07:46.769Z,0.90
2022-10-03T01:10:40.388Z,1.10
2022-10-03T01:13:21.968Z,1.20
2022-10-03T01:16:07.454Z,0.50
2022-10-03T01:18:53.130Z,0.90
2022-10-03T01:21:47.926Z,0.97
2022-10-03T01:24:56.666Z,0.90
2022-10-03T01:28:03.880Z,1.00
2022-10-03T01:30:47.545Z,0.70
2022-10-03T01:33:37.617Z,0.97
2022-10-03T01:36:38.324Z,0.80
2022-10-03T01:39:23.396Z,0.70
2022-10-03T01:42:24.704Z,0.97
2022-10-03T01:45:11.887Z,1.20
2022-10-03T01:48:12.883Z,0.67
2022-10-03T01:50:55.352Z,1.03
2022-10-03T01:53:41.871Z,0.83
2022-10-03T01:56:50.493Z,0.67
2022-10-03T01:59:30.331Z,0.80
2022-10-03T02:02:17.941Z,0.70
2022-10-03T02:05:03.654Z,0.80
2022-10-03T02:07:55.620Z,0.93
2022-10-03T02:10:46.309Z,0.47
2022-10-03T02:13:57.610Z,0.90
2022-10-03T02:16:42.554Z,0.83
2022-10-03T02:20:03.943Z,0.77
2022-10-03T02:22:50.987Z,0.80
2022-10-03T02:25:45.787Z,0.53
2022-10-03T02:28:30.438Z,0.80
2022-10-03T02:31:31.277Z,0.67
2022-10-03T02:34:24.513Z,1.00
2022-10-03T02:37:33.480Z,0.47
2022-10-03T02:40:48.432Z,0.73
2022-10-03T02:43:46.576Z,0.63
2022-10-03T02:46:41.356Z,0.83
2022-10-03T02:50:03.647Z,1.00
2022-10-03T02:53:17.520Z,0.70
2022-10-03T02:56:03.942Z,0.53
2022-10-03T02:58:43.734Z,0.77
2022-10-03T03:02:03.281Z,0.60
2022-10-03T03:05:00.219Z,0.60
2022-10-03T03:08:10.509Z,0.40
2022-10-03T03:11:19.343Z,0.73
2022-10-03T03:14:30.083Z,1.00
2022-10-03T03:17:37.607Z,0.50
2022-10-03T03:20:40.618Z,0.70
2022-10-03T03:23:36.242Z,0.73
2022-10-03T03:26:37.783Z,0.80
2022-10-03T03:29:48.417Z,0.57
2022-10-03T03:32:27.091Z,0.70
2022-10-03T03:35:19.719Z,1.00
2022-10-03T03:38:05.729Z,0.83
2022-10-03T03:41:18.596Z,0.80
2022-10-03T03:44:14.939Z,0.80
2022-10-03T03:47:10.119Z,0.80
2022-10-03T03:50:15.873Z,0.67
2022-10-03T03:53:24.507Z,0.80
2022-10-03T03:56:36.269Z,0.80
2022-10-03T03:59:11.975Z,0.60
2022-10-03T04:02:18.162Z,1.00
2022-10-03T04:05:04.515Z,0.80
2022-10-03T04:08:08.560Z,0.80
2022-10-03T04:11:20.682Z,0.90
2022-10-03T04:14:23.598Z,0.90
2022-10-03T04:17:47.071Z,0.97
2022-10-03T04:20:55.921Z,0.80
2022-10-03T04:23:58.179Z,0.80
2022-10-03T04:27:09.835Z,0.70
2022-10-03T04:29:52.253Z,0.73
2022-10-03T04:32:34.871Z,0.60
2022-10-03T04:35:24.162Z,0.60
2022-10-03T04:38:21.680Z,0.50
2022-10-03T04:40:58.505Z,1.10
2022-10-03T04:43:44.904Z,0.60
2022-10-03T04:46:38.787Z,0.47
2022-10-03T04:49:26.242Z,0.33
2022-10-03T04:52:02.840Z,0.60
2022-10-03T04:55:17.913Z,0.63
2022-10-03T04:58:05.338Z,0.23
2022-10-03T05:00:57.481Z,0.43
2022-10-03T05:03:49.715Z,0.60
2022-10-03T05:06:48.651Z,0.73
2022-10-03T05:09:34.020Z,0.70
2022-10-03T05:12:48.081Z,0.87
2022-10-03T05:15:27.920Z,0.67
2022-10-03T05:18:47.073Z,0.37
2022-10-03T05:21:45.241Z,0.60
2022-10-03T05:24:31.500Z,0.43
2022-10-03T05:27:29.589Z,0.50
2022-10-03T05:30:33.533Z,0.40
2022-10-03T05:33:16.495Z,0.40
2022-10-03T05:36:16.477Z,0.60
2022-10-03T05:39:27.358Z,0.70
2022-10-03T05:42:22.040Z,0.87
2022-10-03T05:44:49.129Z,0.43
2022-10-03T05:47:49.273Z,0.50
2022-10-03T05:50:42.105Z,0.60
2022-10-03T05:53:40.298Z,0.77
2022-10-03T05:56:47.683Z,0.63
2022-10-03T05:59:48.171Z,0.30
2022-10-03T06:03:03.844Z,0.60
2022-10-03T06:05:52.512Z,0.40
2022-10-03T06:08:43.609Z,0.60
2022-10-03T06:11:50.744Z,0.60
2022-10-03T06:14:41.403Z,0.57
2022-10-03T06:17:29.704Z,0.70
2022-10-03T06:20:26.174Z,0.80
2022-10-03T06:23:39.712Z,0.70
2022-10-03T06:26:46.503Z,0.50
2022-10-03T06:29:44.057Z,0.50
2022-10-03T06:33:08.256Z,0.70
2022-10-03T06:35:57.394Z,0.73
2022-10-03T06:39:12.534Z,0.73
2022-10-03T06:42:13.240Z,0.90
2022-10-03T06:44:57.088Z,1.07
2022-10-03T06:47:56.238Z,1.00
2022-10-03T06:50:53.932Z,0.60
2022-10-03T06:53:56.508Z,0.50
2022-10-03T06:57:04.560Z,0.60
2022-10-03T06:59:56.159Z,0.40
2022-10-03T07:02:30.275Z,0.80
2022-10-03T07:05:25.038Z,0.60
2022-10-03T07:08:31.099Z,1.00
2022-10-03T07:11:08.154Z,0.83
2022-10-03T07:13:56.742Z,0.63
2022-10-03T07:16:55.872Z,0.90
2022-10-03T07:20:02.352Z,0.77
2022-10-03T07:23:06.494Z,1.10
2022-10-03T07:25:56.998Z,0.90
2022-10-03T07:28:59.583Z,0.73
2022-10-03T07:31:42.581Z,0.70
2022-10-03T07:34:47.820Z,1.07
2022-10-03T07:38:23.862Z,0.50
2022-10-03T07:41:31.625Z,1.00
2022-10-03T07:44:35.884Z,0.77
2022-10-03T07:47:43.954Z,0.87
2022-10-03T07:50:41.869Z,0.63
2022-10-03T07:53:40.131Z,0.90
2022-10-03T07:57:00.971Z,0.60
2022-10-03T07:59:56.256Z,0.93
2022-10-03T08:02:57.972Z,0.63
2022-10-03T08:05:50.332Z,0.77
2022-10-03T08:08:54.959Z,0.80
2022-10-03T08:12:06.612Z,0.83
2022-10-03T08:15:02.596Z,0.60
2022-10-03T08:18:10.311Z,1.13
2022-10-03T08:21:03.748Z,0.70
2022-10-03T08:23:43.605Z,0.80
2022-10-03T08:26:50.683Z,1.20
2022-10-03T08:29:52.082Z,1.00
2022-10-03T08:33:00.360Z,0.90
2022-10-03T08:35:39.970Z,0.83
2022-10-03T08:38:36.035Z,0.77
2022-10-03T08:41:38.813Z,0.90
2022-10-03T08:44:45.082Z,1.17
2022-10-03T08:47:43.157Z,1.13
2022-10-03T08:51:05.956Z,1.00
2022-10-03T08:54:07.227Z,1.20
2022-10-03T08:57:09.278Z,1.00
2022-10-03T09:00:04.813Z,1.30
2022-10-03T09:06:09.617Z,0.83
2022-10-03T09:09:20.402Z,1.27
2022-10-03T09:12:45.818Z,1.10
2022-10-03T09:15:38.199Z,1.13
2022-10-03T09:18:30.718Z,0.90
2022-10-03T09:21:20.043Z,1.00
2022-10-03T09:24:22.596Z,1.23
2022-10-03T09:27:25.269Z,1.07
2022-10-03T09:30:23.259Z,1.00
2022-10-03T09:33:46.088Z,1.00
2022-10-03T09:36:56.437Z,1.30
2022-10-03T09:39:51.085Z,1.00
2022-10-03T09:42:45.793Z,1.33
2022-10-03T09:45:58.468Z,1.03
2022-10-03T09:49:13.073Z,1.00
2022-10-03T09:51:58.664Z,1.00
2022-10-03T09:54:53.521Z,0.90
2022-10-03T09:57:48.504Z,0.80
2022-10-03T10:00:22.382Z,1.00
2022-10-03T10:03:27.225Z,1.03
2022-10-03T10:06:07.095Z,0.80
2022-10-03T10:09:00.848Z,0.60
2022-10-03T10:12:03.524Z,0.80
2022-10-03T10:14:57.309Z,0.90
2022-10-03T10:17:58.355Z,0.90
2022-10-03T10:21:08.442Z,0.70
2022-10-03T10:24:05.489Z,0.90
2022-10-03T10:27:20.509Z,1.10
2022-10-03T10:30:23.620Z,0.80
2022-10-03T10:33:48.028Z,1.00
2022-10-03T10:37:00.800Z,0.70
2022-10-03T10:39:49.573Z,0.47
2022-10-03T10:42:59.913Z,0.77
2022-10-03T10:46:00.174Z,0.73
2022-10-03T10:49:10.182Z,1.00
2022-10-03T10:52:11.232Z,0.90
2022-10-03T10:54:54.113Z,0.90
2022-10-03T10:58:10.913Z,0.50
2022-10-03T11:01:09.614Z,1.00
2022-10-03T11:04:11.030Z,0.70
2022-10-03T11:07:27.550Z,1.03
2022-10-03T11:10:22.593Z,0.60
2022-10-03T11:13:17.659Z,0.90
2022-10-03T11:16:34.080Z,0.90
2022-10-03T11:19:10.623Z,0.73
2022-10-03T11:22:00.101Z,0.83
2022-10-03T11:25:10.495Z,0.80
2022-10-03T11:28:15.615Z,0.70
2022-10-03T11:31:18.077Z,0.73
2022-10-03T11:34:10.191Z,0.53
2022-10-03T11:37:05.401Z,0.50
2022-10-03T11:39:45.061Z,0.73
2022-10-03T11:42:34.241Z,0.70
2022-10-03T11:45:10.259Z,0.87
2022-10-03T11:48:05.600Z,0.50
2022-10-03T11:50:42.623Z,0.70
2022-10-03T11:53:19.489Z,0.60
2022-10-03T11:56:21.743Z,1.00
2022-10-03T11:59:33.647Z,1.17
2022-10-03T12:02:18.513Z,1.10
2022-10-03T12:04:55.570Z,1.30
2022-10-03T12:08:13.052Z,1.47
2022-10-03T12:11:08.268Z,0.70
2022-10-03T12:14:11.608Z,1.20
2022-10-03T12:17:06.758Z,1.00
2022-10-03T12:20:03.489Z,0.73
2022-10-03T12:22:53.262Z,0.80
2022-10-03T12:25:39.088Z,0.50
2022-10-03T12:28:37.086Z,0.60
2022-10-03T12:31:29.336Z,0.83
2022-10-03T12:34:25.870Z,1.20
2022-10-03T12:37:25.400Z,0.67
2022-10-03T12:40:22.350Z,0.70
2022-10-03T12:43:27.220Z,0.60
2022-10-03T12:46:01.886Z,0.70
2022-10-03T12:48:48.524Z,0.70
2022-10-03T12:51:42.785Z,0.90
2022-10-03T12:54:32.071Z,0.60
2022-10-03T12:57:34.299Z,0.63
2022-10-03T13:00:26.922Z,0.60
2022-10-03T13:03:26.043Z,0.70
2022-10-03T13:06:03.831Z,0.50
2022-10-03T13:08:44.686Z,0.80
2022-10-03T13:11:27.634Z,0.50
2022-10-03T13:14:44.219Z,0.70
2022-10-03T13:17:36.252Z,0.70
2022-10-03T13:20:21.915Z,0.53
2022-10-03T13:23:24.523Z,0.70
2022-10-03T13:26:17.987Z,0.90
2022-10-03T13:29:31.836Z,0.90
2022-10-03T13:32:16.471Z,0.70
2022-10-03T13:35:29.317Z,0.60
2022-10-03T13:38:38.810Z,0.63
2022-10-03T13:41:29.921Z,0.80
2022-10-03T13:44:13.143Z,0.60
2022-10-03T13:47:16.841Z,0.60
2022-10-03T13:49:53.698Z,0.80
2022-10-03T13:52:42.578Z,0.70
2022-10-03T13:55:47.312Z,0.60
2022-10-03T13:58:57.979Z,0.60
2022-10-03T14:01:38.540Z,0.80
2022-10-03T14:04:30.317Z,0.83
2022-10-03T14:07:36.217Z,0.97
2022-10-03T14:10:26.614Z,0.80
2022-10-03T14:13:06.147Z,0.73
2022-10-03T14:15:55.678Z,0.40
2022-10-03T14:18:35.824Z,0.60
2022-10-03T14:21:40.199Z,0.90
2022-10-03T14:24:39.601Z,1.00
2022-10-03T14:27:31.023Z,1.27
2022-10-03T14:30:20.092Z,1.10
2022-10-03T14:33:27.381Z,0.70
2022-10-03T14:36:41.549Z,0.70
2022-10-03T14:39:36.412Z,0.40
2022-10-03T14:42:34.313Z,0.70
2022-10-03T14:45:11.674Z,0.50
2022-10-03T14:47:45.866Z,0.43
2022-10-03T14:50:22.420Z,0.63
2022-10-03T14:53:06.166Z,0.50
2022-10-03T14:55:43.008Z,0.90
2022-10-03T14:58:27.769Z,0.73
2022-10-03T15:01:04.280Z,0.47
2022-10-03T15:03:41.869Z,0.80
2022-10-03T15:06:42.999Z,0.80
2022-10-03T15:09:30.206Z,0.80
2022-10-03T15:12:31.657Z,0.80
2022-10-03T15:15:14.922Z,0.70
2022-10-03T15:17:51.989Z,0.67
2022-10-03T15:20:33.294Z,0.60
2022-10-03T15:23:10.649Z,0.47
2022-10-03T15:25:45.081Z,0.70
2022-10-03T15:28:30.541Z,0.80
2022-10-03T15:31:08.409Z,0.50
2022-10-03T15:33:40.858Z,0.73
2022-10-03T15:36:29.984Z,0.50
2022-10-03T15:39:04.419Z,0.60
2022-10-03T15:41:50.244Z,0.53
2022-10-03T15:44:32.115Z,0.60
2022-10-03T15:47:18.514Z,0.30
2022-10-03T15:50:10.300Z,0.40
2022-10-03T15:52:53.188Z,0.60
2022-10-03T15:55:37.963Z,0.40
2022-10-03T15:58:12.030Z,0.60
2022-10-03T16:00:45.215Z,0.30
2022-10-03T16:03:25.375Z,0.40
2022-10-03T16:06:22.948Z,0.57
2022-10-03T16:09:21.235Z,0.30
2022-10-03T16:12:13.254Z,0.40
2022-10-03T16:14:51.513Z,0.40
2022-10-03T16:20:33.681Z,0.40
2022-10-03T16:23:16.915Z,0.70
2022-10-03T16:25:56.599Z,0.40
2022-10-03T16:28:33.621Z,0.23
2022-10-03T16:31:17.415Z,0.60
2022-10-03T16:34:16.143Z,0.63
2022-10-03T16:36:50.169Z,0.50
2022-10-03T16:39:38.690Z,0.70
2022-10-03T16:42:20.681Z,0.53
2022-10-03T16:44:55.465Z,0.40
2022-10-03T16:47:38.710Z,0.50
2022-10-03T16:50:27.739Z,0.50
2022-10-03T16:52:59.950Z,0.30
2022-10-03T16:55:34.100Z,0.70
2022-10-03T16:58:10.696Z,0.20
2022-10-03T17:03:50.608Z,0.70
2022-10-03T17:06:33.315Z,0.40
2022-10-03T17:09:07.690Z,0.43
2022-10-03T17:11:41.559Z,0.50
2022-10-03T17:14:12.346Z,0.50
2022-10-03T17:16:49.519Z,0.60
2022-10-03T17:19:23.627Z,0.23
2022-10-03T17:21:58.084Z,0.30
2022-10-03T17:24:34.885Z,0.20
2022-10-03T17:27:08.996Z,0.23
2022-10-03T17:29:45.561Z,0.33
2022-10-03T17:32:22.073Z,0.20
2022-10-03T17:35:28.620Z,0.30
2022-10-03T17:38:48.276Z,0.30
2022-10-03T17:41:22.346Z,0.23
2022-10-03T17:44:25.782Z,0.50
2022-10-03T17:47:17.617Z,0.60
2022-10-03T17:50:15.817Z,0.50
2022-10-03T17:52:53.000Z,0.53
2022-10-03T17:55:37.948Z,0.50
2022-10-03T17:58:17.405Z,0.37
2022-10-03T18:01:06.275Z,0.40
2022-10-03T18:04:01.866Z,0.30
2022-10-03T18:06:41.340Z,0.17
2022-10-03T18:09:22.744Z,0.30
2022-10-03T18:11:53.400Z,0.27
2022-10-03T18:15:12.483Z,0.33
2022-10-03T18:18:27.355Z,0.40
2022-10-03T18:21:16.772Z,0.43
2022-10-03T18:23:59.750Z,1.63
2022-10-03T18:26:46.115Z,1.67
2022-10-03T18:29:34.948Z,1.67
2022-10-03T18:32:24.380Z,1.13
2022-10-03T18:35:16.192Z,1.00
2022-10-03T18:37:53.101Z,0.70
2022-10-03T18:40:36.182Z,0.50
2022-10-03T18:43:07.576Z,0.60
2022-10-03T18:45:48.695Z,0.33
2022-10-03T18:48:28.341Z,0.40
2022-10-03T18:51:14.094Z,0.40
2022-10-03T18:53:53.961Z,0.30
2022-10-03T18:56:28.085Z,0.40
2022-10-03T18:59:16.652Z,0.50
2022-10-03T19:01:56.316Z,0.60
2022-10-03T19:04:45.246Z,0.50
2022-10-03T19:07:27.916Z,0.50
2022-10-03T19:10:18.888Z,0.40
2022-10-03T19:12:53.077Z,0.40
2022-10-03T19:15:58.209Z,0.47
2022-10-03T19:18:44.309Z,0.50
2022-10-03T19:21:22.533Z,0.60
2022-10-03T19:23:56.604Z,0.60
2022-10-03T19:26:36.107Z,0.30
2022-10-03T19:29:12.513Z,0.50
2022-10-03T19:31:49.534Z,0.30
2022-10-03T19:34:38.633Z,0.47
2022-10-03T19:37:33.320Z,0.30
2022-10-03T19:40:03.018Z,0.60
2022-10-03T19:42:45.321Z,0.30
2022-10-03T19:45:17.387Z,0.30
2022-10-03T19:47:59.542Z,0.40
2022-10-03T19:50:38.860Z,0.30
2022-10-03T19:53:19.901Z,0.40
2022-10-03T19:55:51.152Z,0.30
2022-10-03T19:58:25.352Z,0.30
2022-10-03T20:00:58.448Z,0.20
2022-10-03T20:03:41.292Z,0.20
2022-10-03T20:06:21.444Z,0.20
2022-10-03T20:09:07.481Z,0.20
2022-10-03T20:12:07.963Z,0.20
2022-10-03T20:14:41.308Z,0.23
2022-10-03T20:17:25.434Z,0.40
2022-10-03T20:20:11.407Z,0.40
2022-10-03T20:22:41.828Z,0.40
2022-10-03T20:25:34.004Z,0.33
2022-10-03T20:28:08.389Z,0.30
2022-10-03T20:30:50.889Z,0.40
2022-10-03T20:33:31.284Z,0.20
2022-10-03T20:36:20.244Z,0.60
2022-10-03T20:39:21.094Z,0.23
2022-10-03T20:42:03.570Z,0.40
2022-10-03T20:45:00.115Z,0.40
2022-10-03T20:47:39.853Z,0.27
2022-10-03T20:50:41.093Z,0.20
2022-10-03T20:53:23.221Z,0.30
2022-10-03T20:55:59.756Z,0.50
2022-10-03T20:58:55.112Z,0.57
2022-10-03T21:01:28.567Z,0.20
2022-10-03T21:04:23.523Z,0.30
2022-10-03T21:07:19.521Z,0.23
2022-10-03T21:10:08.386Z,0.33
2022-10-03T21:12:49.290Z,0.40
2022-10-03T21:15:37.748Z,0.40
2022-10-03T21:18:10.610Z,0.30
2022-10-03T21:20:41.823Z,0.33
2022-10-03T21:23:24.554Z,0.30
2022-10-03T21:25:58.782Z,0.37
2022-10-03T21:28:35.293Z,0.30
2022-10-03T21:31:35.994Z,0.40
2022-10-03T21:34:21.869Z,0.33
2022-10-03T21:37:06.547Z,0.10
2022-10-03T21:40:09.005Z,0.30
2022-10-03T21:43:15.956Z,0.40
2022-10-03T21:46:13.806Z,0.23
2022-10-03T21:49:41.137Z,0.37
2022-10-03T21:52:52.223Z,0.23
2022-10-03T21:56:04.253Z,0.30
2022-10-03T21:59:01.176Z,0.47
2022-10-03T22:01:44.316Z,0.30
2022-10-03T22:04:42.448Z,0.40
2022-10-03T22:07:22.198Z,0.30
2022-10-03T22:09:57.951Z,0.20
2022-10-03T22:12:30.674Z,0.40
2022-10-03T22:15:10.460Z,0.33
2022-10-03T22:18:05.550Z,0.40
2022-10-03T22:20:36.400Z,0.30
2022-10-03T22:23:33.331Z,0.20
2022-10-03T22:26:16.089Z,0.20
2022-10-03T22:29:12.733Z,0.27
2022-10-03T22:31:56.216Z,0.30
2022-10-03T22:35:00.764Z,0.47
2022-10-03T22:37:30.723Z,0.40
2022-10-03T22:40:02.403Z,0.40
2022-10-03T22:42:35.980Z,0.40
2022-10-03T22:45:07.248Z,0.40
2022-10-03T22:47:39.997Z,0.30
2022-10-03T22:50:14.077Z,0.70
2022-10-03T22:52:48.227Z,0.50
2022-10-03T22:55:21.660Z,0.30
2022-10-03T22:57:53.824Z,0.30
2022-10-03T23:00:32.763Z,0.50
2022-10-03T23:03:10.165Z,0.30
2022-10-03T23:06:08.506Z,0.30
2022-10-03T23:09:20.204Z,0.53
2022-10-03T23:11:54.545Z,0.30
2022-10-03T23:14:34.634Z,0.50
2022-10-03T23:17:48.180Z,0.33
2022-10-03T23:20:55.545Z,0.70
2022-10-03T23:23:46.303Z,0.40
2022-10-03T23:27:10.780Z,0.30
2022-10-03T23:29:40.991Z,0.67
2022-10-03T23:32:12.607Z,0.57
2022-10-03T23:34:47.617Z,0.33
2022-10-03T23:37:21.665Z,0.50
2022-10-03T23:40:01.897Z,0.50
2022-10-03T23:42:46.862Z,0.67
2022-10-03T23:45:25.525Z,0.50
2022-10-03T23:48:11.374Z,0.63
2022-10-03T23:50:57.210Z,0.60
2022-10-03T23:53:33.758Z,0.43
2022-10-03T23:56:07.050Z,0.60
2022-10-03T23:58:39.812Z,0.50
